Strona główna
METAR-TAF:

METAR-TAF

Lotnisko :

Valcartier, Quebec, Kanada

Szerokość geograficzna: 46-54N, Długość geograficzna: 071-30W, wysokość: 168 m

Aktualna obserwacja pogody

Raport powstał 57 minut temu, godzina 03:00 UTC
Wiatr 6 kt od wschodnio-południowy wschód, zmienny między wschodnio-północny wschód i południowo-południowy wschód
Temperatura 4°C
Wilgotność 70%
Ciśnienie 1019 hPa
Widzialność: 14.5 km
Zachmurzenie całkowite na wysokości 4600 ft

METAR: CYOY 040300Z AUTO 11006KT 060V150 9SM OVC046 04/M01 A3010 RMK SLP201

czas: 23:57 (03:57 UTC)


TAF: brakujący

Obserwacja i prognoza pogody dla ponad 4000 lotnisk (raport METAR i TAF).

Dostępne stacje oznaczono żółtymi i czerwonymi punktami na mapie.

Najedź kursorem aby zobaczyć nazwę stacji.

Kliknij aby zobaczyć obserwacje i prognozy pogody.

Aby zmienić mapę: kliknij na zielony przycisk z czarnym krzyżykiem, aby powiększyć; na zielony przycisk z myślnikiem, aby pomniejszyć; na zielone strzałki, aby przejść do map sąsiednich.


METAR-TAF: